Time;durP1;ratioP1;P1;durP2;ratioP2;P2;SDS_P1;SDS_P2;PMS_P1;PMS_P2;Temp;Humidity;BMP_temperature;BMP_pressure;BME280_temperature;BME280_humidity;BME280_pressure;Samples;Min_cycle;Max_cycle;Signal;HPM_P1;HPM_P2
2022/10/13 00:00:50;;;;;;;19.25;15.30;;;10.70;99.90;;;;;;6210448;23;20005;-73
2022/10/13 00:03:16;;;;;;;24.90;14.68;;;10.80;99.90;;;;;;6210838;23;20008;-74
2022/10/13 00:05:45;;;;;;;22.15;15.15;;;10.80;99.90;;;;;;6210476;23;20000;-74
2022/10/13 00:08:11;;;;;;;20.05;13.88;;;10.80;99.90;;;;;;6210149;23;20012;-74
2022/10/13 00:10:38;;;;;;;18.40;14.30;;;10.80;99.90;;;;;;6210547;23;20008;-74
2022/10/13 00:13:05;;;;;;;24.38;13.18;;;10.80;99.90;;;;;;6211389;23;20105;-74
2022/10/13 00:15:31;;;;;;;22.42;14.07;;;10.80;99.90;;;;;;6185919;23;20430;-74
2022/10/13 00:17:56;;;;;;;22.15;14.27;;;10.90;99.90;;;;;;6212486;23;20024;-74
2022/10/13 00:20:22;;;;;;;18.63;12.83;;;10.90;99.90;;;;;;6212654;23;20001;-74
2022/10/13 00:22:47;;;;;;;24.00;13.77;;;10.90;99.90;;;;;;6212044;23;20321;-74
2022/10/13 00:25:13;;;;;;;25.10;15.30;;;10.80;99.90;;;;;;6212445;23;20098;-74
2022/10/13 00:27:38;;;;;;;20.23;13.43;;;12.00;99.90;;;;;;6212534;23;20299;-76
2022/10/13 00:30:04;;;;;;;24.83;14.85;;;10.80;99.90;;;;;;6212693;23;20008;-75
2022/10/13 00:32:30;;;;;;;20.42;14.25;;;10.80;99.90;;;;;;6186042;23;20452;-74
2022/10/13 00:34:56;;;;;;;25.75;15.15;;;10.70;99.90;;;;;;6212215;23;20012;-74
2022/10/13 00:37:22;;;;;;;18.30;12.82;;;10.90;99.90;;;;;;6211913;23;20028;-74
2022/10/13 00:39:48;;;;;;;18.90;13.90;;;10.90;99.90;;;;;;6212285;23;20008;-74
2022/10/13 00:42:13;;;;;;;21.97;13.80;;;10.80;99.90;;;;;;6212241;23;20001;-74
2022/10/13 00:45:00;;;;;;;18.55;12.70;;;10.80;99.90;;;;;;6212245;23;20084;-74
2022/10/13 00:47:29;;;;;;;22.67;14.65;;;10.90;99.90;;;;;;6212651;23;20075;-74
2022/10/13 00:49:56;;;;;;;22.10;13.63;;;11.00;99.90;;;;;;6212411;23;20024;-75
2022/10/13 00:52:24;;;;;;;20.90;13.77;;;11.10;99.90;;;;;;6211639;23;20039;-74
2022/10/13 00:54:50;;;;;;;21.55;13.85;;;11.00;99.90;;;;;;6212229;23;20084;-75
2022/10/13 00:57:18;;;;;;;19.55;14.57;;;10.80;99.90;;;;;;6212206;23;20446;-75
2022/10/13 00:59:43;;;;;;;22.25;15.18;;;11.00;99.90;;;;;;6212265;23;19997;-74
2022/10/13 01:02:12;;;;;;;19.25;13.73;;;11.00;99.90;;;;;;6211974;23;20031;-75
2022/10/13 01:04:43;;;;;;;24.30;15.45;;;11.00;99.90;;;;;;6211824;23;20001;-76
2022/10/13 01:07:09;;;;;;;30.05;15.32;;;11.10;99.90;;;;;;6211645;23;20043;-76
2022/10/13 01:09:41;;;;;;;23.20;15.23;;;11.00;99.90;;;;;;6212294;23;20683;-75
2022/10/13 01:12:15;;;;;;;22.90;15.95;;;11.00;99.90;;;;;;6212058;23;20035;-75
2022/10/13 01:14:48;;;;;;;26.02;15.60;;;11.00;99.90;;;;;;6211867;23;20284;-75
2022/10/13 01:17:32;;;;;;;22.80;14.47;;;11.00;99.90;;;;;;6211936;23;20091;-77
2022/10/13 01:20:00;;;;;;;20.98;15.20;;;11.10;99.90;;;;;;6211424;23;20293;-75
2022/10/13 01:22:32;;;;;;;25.17;15.90;;;10.90;99.90;;;;;;6211632;23;20083;-75
2022/10/13 01:25:27;;;;;;;24.45;15.35;;;11.00;99.90;;;;;;6211039;23;20004;-75
2022/10/13 01:28:06;;;;;;;26.33;14.90;;;11.10;99.90;;;;;;6211561;23;20131;-75
2022/10/13 01:30:44;;;;;;;23.10;16.02;;;11.00;99.90;;;;;;6211865;23;20001;-75
2022/10/13 01:33:23;;;;;;;18.90;14.90;;;11.10;99.90;;;;;;6211936;23;20004;-75
2022/10/13 01:36:05;;;;;;;23.27;16.35;;;10.90;99.90;;;;;;6211034;23;20466;-75
2022/10/13 01:38:46;;;;;;;22.00;15.13;;;11.10;99.90;;;;;;6211839;23;20393;-75
2022/10/13 01:41:24;;;;;;;22.45;15.50;;;11.00;99.90;;;;;;6211504;23;20038;-75
2022/10/13 01:44:19;;;;;;;23.13;15.30;;;11.20;99.90;;;;;;6210219;23;20005;-75
2022/10/13 01:46:47;;;;;;;23.23;15.63;;;11.20;99.90;;;;;;6211530;23;20015;-75
2022/10/13 01:49:17;;;;;;;23.77;15.85;;;11.10;99.90;;;;;;6210992;23;20366;-75
2022/10/13 01:51:43;;;;;;;29.10;16.50;;;11.10;99.90;;;;;;6211494;23;20001;-75
2022/10/13 01:54:10;;;;;;;25.88;16.05;;;11.20;99.90;;;;;;6211351;23;20170;-75
2022/10/13 01:56:35;;;;;;;23.70;15.32;;;11.10;99.90;;;;;;6211714;23;20040;-75
2022/10/13 01:59:06;;;;;;;25.05;16.10;;;11.20;99.90;;;;;;6211108;23;20268;-74
2022/10/13 02:01:37;;;;;;;25.38;16.48;;;13.30;99.90;;;;;;6211359;23;20039;-75
2022/10/13 02:04:41;;;;;;;23.92;15.77;;;11.30;99.90;;;;;;6210996;23;20007;-75
2022/10/13 02:07:22;;;;;;;25.23;15.38;;;11.30;99.90;;;;;;6211368;23;20005;-75
2022/10/13 02:10:01;;;;;;;22.25;15.13;;;11.40;99.90;;;;;;6184706;23;20362;-75
2022/10/13 02:12:51;;;;;;;21.80;14.75;;;11.40;99.90;;;;;;6211217;23;20016;-75
2022/10/13 02:15:23;;;;;;;22.98;15.65;;;11.40;99.90;;;;;;6210302;23;20009;-75
2022/10/13 02:17:50;;;;;;;20.57;14.63;;;11.50;99.90;;;;;;6210893;23;20011;-75
2022/10/13 02:20:18;;;;;;;21.08;15.00;;;11.40;99.90;;;;;;6211239;23;20008;-75
2022/10/13 02:22:46;;;;;;;22.10;16.48;;;11.40;99.90;;;;;;6211254;23;20203;-75
2022/10/13 02:25:12;;;;;;;21.98;14.63;;;11.50;99.90;;;;;;6211115;23;20072;-74
2022/10/13 02:27:38;;;;;;;21.10;14.87;;;12.20;99.90;;;;;;6211087;23;20024;-74
2022/10/13 02:30:04;;;;;;;25.25;14.98;;;11.50;99.90;;;;;;6211229;23;20001;-74
2022/10/13 02:32:30;;;;;;;27.60;17.58;;;11.40;99.90;;;;;;6210554;23;20058;-75
2022/10/13 02:34:55;;;;;;;21.90;15.85;;;11.50;99.90;;;;;;6210835;23;20434;-75
2022/10/13 02:37:24;;;;;;;21.40;15.65;;;11.50;99.90;;;;;;6211156;23;20001;-74
2022/10/13 02:39:50;;;;;;;23.00;16.30;;;11.50;99.90;;;;;;6210940;23;20410;-74
2022/10/13 02:42:15;;;;;;;21.52;15.20;;;11.50;99.90;;;;;;6211046;23;20008;-74
2022/10/13 02:44:41;;;;;;;23.50;16.40;;;11.40;99.90;;;;;;6210628;23;20039;-74
2022/10/13 02:47:06;;;;;;;29.05;16.55;;;11.50;99.90;;;;;;6210470;23;20005;-75
2022/10/13 02:49:32;;;;;;;25.42;15.80;;;13.00;99.90;;;;;;6211384;23;20055;-74
2022/10/13 02:51:57;;;;;;;26.70;15.50;;;11.50;99.90;;;;;;6210941;23;20005;-74
2022/10/13 02:54:23;;;;;;;21.80;15.27;;;11.60;99.90;;;;;;6211650;23;20043;-74
2022/10/13 02:56:48;;;;;;;21.75;15.50;;;11.60;99.90;;;;;;6216392;23;20016;-75
2022/10/13 02:59:14;;;;;;;23.50;14.88;;;11.60;99.90;;;;;;6219227;23;20367;-74
2022/10/13 03:01:41;;;;;;;23.27;14.23;;;11.60;99.90;;;;;;6216064;23;20383;-74
2022/10/13 03:04:07;;;;;;;24.00;16.33;;;11.60;99.90;;;;;;6212263;23;20481;-74
2022/10/13 03:06:33;;;;;;;22.17;15.52;;;11.60;99.90;;;;;;6185141;23;20426;-74
2022/10/13 03:08:58;;;;;;;21.42;14.70;;;11.70;99.90;;;;;;6211474;23;20004;-74
2022/10/13 03:11:24;;;;;;;21.80;14.88;;;11.60;99.90;;;;;;6212877;23;20011;-74
2022/10/13 03:13:50;;;;;;;24.90;16.02;;;11.70;99.90;;;;;;6216546;23;20001;-74
2022/10/13 03:16:15;;;;;;;26.35;15.43;;;11.60;99.90;;;;;;6217226;23;20027;-74
2022/10/13 03:18:41;;;;;;;25.50;15.38;;;11.70;99.90;;;;;;6210605;23;20008;-74
2022/10/13 03:21:07;;;;;;;22.40;14.77;;;11.60;99.90;;;;;;6209212;23;20426;-74
2022/10/13 03:23:32;;;;;;;24.50;14.57;;;11.50;99.90;;;;;;6209124;23;19996;-75
2022/10/13 03:25:58;;;;;;;20.10;14.88;;;11.80;99.90;;;;;;6208747;23;20003;-74
2022/10/13 03:28:24;;;;;;;20.90;14.60;;;11.70;99.90;;;;;;6210828;23;20489;-74
2022/10/13 03:30:49;;;;;;;22.83;16.08;;;12.10;99.90;;;;;;6210306;23;20047;-74
2022/10/13 03:33:15;;;;;;;24.92;14.45;;;11.70;99.90;;;;;;6211209;23;20027;-74
2022/10/13 03:35:40;;;;;;;21.27;14.52;;;11.70;99.90;;;;;;6210258;23;20065;-75
2022/10/13 03:38:06;;;;;;;25.58;15.80;;;11.80;99.90;;;;;;6209983;23;20000;-74
2022/10/13 03:40:34;;;;;;;31.15;15.60;;;11.80;99.90;;;;;;6210598;23;20320;-74
2022/10/13 03:43:00;;;;;;;20.48;13.90;;;11.70;99.90;;;;;;6210473;23;19997;-74
2022/10/13 03:45:26;;;;;;;21.50;14.82;;;11.80;99.90;;;;;;6209860;23;20075;-74
2022/10/13 03:47:51;;;;;;;22.55;14.52;;;11.70;99.90;;;;;;6211456;23;20009;-74
2022/10/13 03:50:17;;;;;;;21.85;14.65;;;11.90;99.90;;;;;;6212843;23;20008;-74
2022/10/13 03:52:42;;;;;;;22.33;14.68;;;11.80;99.90;;;;;;6212921;23;20008;-74
2022/10/13 03:55:08;;;;;;;27.70;16.00;;;11.90;99.90;;;;;;6213240;23;20470;-74
2022/10/13 03:57:34;;;;;;;25.95;15.95;;;11.90;99.90;;;;;;6212989;23;20074;-74
2022/10/13 04:00:00;;;;;;;28.00;14.63;;;12.40;99.90;;;;;;6211934;23;20011;-74
2022/10/13 04:02:26;;;;;;;23.98;15.05;;;;;;;;;;6212545;23;20333;-74
2022/10/13 04:04:51;;;;;;;22.67;15.85;;;11.90;99.90;;;;;;6212606;23;20029;-74
2022/10/13 04:07:17;;;;;;;23.48;14.15;;;11.90;99.90;;;;;;6212503;23;20005;-74
2022/10/13 04:09:43;;;;;;;24.13;15.18;;;11.90;99.90;;;;;;6212632;23;20005;-74
2022/10/13 04:12:08;;;;;;;23.13;14.82;;;13.20;99.90;;;;;;6212063;23;20024;-73
2022/10/13 04:14:34;;;;;;;25.58;16.08;;;12.00;99.90;;;;;;6212078;23;20358;-74
2022/10/13 04:16:59;;;;;;;23.15;16.80;;;11.90;99.90;;;;;;6211877;23;20379;-74
2022/10/13 04:19:25;;;;;;;28.67;15.65;;;11.90;99.90;;;;;;6212123;23;20047;-74
2022/10/13 04:21:50;;;;;;;18.55;14.40;;;11.90;99.90;;;;;;6211418;23;20008;-74
2022/10/13 04:24:17;;;;;;;23.58;14.20;;;11.90;99.90;;;;;;6212087;23;20008;-74
2022/10/13 04:26:44;;;;;;;23.17;13.63;;;12.00;99.90;;;;;;6212154;23;19997;-75
2022/10/13 04:29:10;;;;;;;20.40;14.77;;;12.00;99.90;;;;;;6211107;23;20088;-74
2022/10/13 04:31:37;;;;;;;24.25;15.40;;;11.90;99.90;;;;;;6212283;23;20011;-74
2022/10/13 04:34:03;;;;;;;27.63;14.82;;;11.80;99.90;;;;;;6212043;23;20376;-74
2022/10/13 04:36:29;;;;;;;21.85;14.60;;;11.90;99.90;;;;;;6185593;23;20015;-74
2022/10/13 04:38:54;;;;;;;25.98;15.98;;;11.90;99.90;;;;;;6211918;23;20046;-74
2022/10/13 04:41:21;;;;;;;21.95;14.45;;;11.90;99.90;;;;;;6212085;23;20012;-74
2022/10/13 04:43:48;;;;;;;25.10;14.10;;;11.80;99.90;;;;;;6211680;23;20003;-74
2022/10/13 04:46:18;;;;;;;26.45;16.30;;;11.90;99.90;;;;;;6211530;23;20295;-74
2022/10/13 04:48:43;;;;;;;18.42;13.75;;;11.80;99.90;;;;;;6212168;23;20000;-74
2022/10/13 04:51:12;;;;;;;20.25;14.05;;;11.90;99.90;;;;;;6212204;23;20019;-74
2022/10/13 04:53:37;;;;;;;26.85;15.00;;;12.50;99.90;;;;;;6211892;23;20005;-74
2022/10/13 04:56:07;;;;;;;24.02;14.82;;;11.90;99.90;;;;;;6211960;23;20417;-74
2022/10/13 04:58:33;;;;;;;20.85;12.32;;;11.90;99.90;;;;;;6211367;23;20155;-74
2022/10/13 05:00:59;;;;;;;24.45;14.80;;;11.20;99.90;;;;;;6211594;23;20001;-74
2022/10/13 05:03:25;;;;;;;25.52;15.07;;;11.90;99.90;;;;;;6212068;23;19996;-74
2022/10/13 05:05:51;;;;;;;24.73;14.52;;;11.90;99.90;;;;;;6211778;23;20046;-74
2022/10/13 05:08:17;;;;;;;20.42;14.60;;;11.70;99.90;;;;;;6212045;23;20007;-74
2022/10/13 05:10:51;;;;;;;20.50;14.27;;;11.80;99.90;;;;;;6211763;23;20412;-74
2022/10/13 05:13:16;;;;;;;19.13;13.63;;;11.90;99.90;;;;;;6211628;23;20062;-74
2022/10/13 05:15:42;;;;;;;22.60;14.93;;;12.00;99.90;;;;;;6212216;23;20008;-73
2022/10/13 05:18:07;;;;;;;23.90;14.23;;;11.80;99.90;;;;;;6212276;23;20409;-74
2022/10/13 05:20:33;;;;;;;21.52;14.77;;;11.80;99.90;;;;;;6211962;23;20008;-74
2022/10/13 05:22:59;;;;;;;21.20;13.95;;;11.80;99.90;;;;;;6185153;23;20072;-74
2022/10/13 05:25:24;;;;;;;26.90;15.35;;;11.90;99.90;;;;;;6185113;23;20092;-74
2022/10/13 05:27:50;;;;;;;23.48;13.35;;;11.90;99.90;;;;;;6210405;23;20008;-74
2022/10/13 05:30:15;;;;;;;20.67;14.98;;;12.00;99.90;;;;;;6212261;23;20005;-74
2022/10/13 05:32:41;;;;;;;23.95;14.52;;;12.00;99.90;;;;;;6211885;23;20004;-74
2022/10/13 05:35:07;;;;;;;25.38;14.18;;;12.00;99.90;;;;;;6185600;23;20039;-74
2022/10/13 05:37:32;;;;;;;27.25;14.00;;;12.10;99.90;;;;;;6211762;23;20066;-74
2022/10/13 05:39:58;;;;;;;18.02;14.15;;;12.00;99.90;;;;;;6211439;23;20449;-74
2022/10/13 05:42:23;;;;;;;21.73;14.25;;;13.30;99.90;;;;;;6184430;23;20039;-74
2022/10/13 05:44:49;;;;;;;16.55;12.45;;;12.10;99.90;;;;;;6211508;23;20095;-74
2022/10/13 05:47:15;;;;;;;25.52;15.18;;;12.20;99.90;;;;;;6211463;23;20000;-74
2022/10/13 05:49:40;;;;;;;21.85;13.88;;;12.10;99.90;;;;;;6211780;23;20011;-74
2022/10/13 05:52:09;;;;;;;23.10;15.35;;;12.20;99.90;;;;;;6211655;23;19997;-74
2022/10/13 05:54:47;;;;;;;19.15;15.48;;;12.20;99.90;;;;;;6211674;23;20073;-74
2022/10/13 05:57:27;;;;;;;23.38;14.65;;;12.30;99.90;;;;;;6211107;23;20001;-71
2022/10/13 06:00:00;;;;;;;23.65;15.52;;;12.20;99.90;;;;;;6211533;23;20012;-72
2022/10/13 06:02:33;;;;;;;20.45;13.85;;;12.20;99.90;;;;;;6211687;23;20013;-72
2022/10/13 06:05:01;;;;;;;22.42;15.18;;;12.20;99.90;;;;;;6211370;23;20325;-72
2022/10/13 06:07:28;;;;;;;21.77;15.38;;;12.20;99.90;;;;;;6211456;23;19997;-72
2022/10/13 06:09:54;;;;;;;21.38;14.00;;;12.20;99.90;;;;;;6210567;23;20004;-72
2022/10/13 06:12:20;;;;;;;23.45;15.05;;;12.30;99.90;;;;;;6211598;23;20000;-72
2022/10/13 06:14:46;;;;;;;20.75;15.18;;;12.30;99.90;;;;;;6216141;23;20058;-72
2022/10/13 06:17:11;;;;;;;24.58;16.02;;;12.60;99.90;;;;;;6216080;23;20279;-71
2022/10/13 06:19:37;;;;;;;21.10;15.73;;;12.30;99.90;;;;;;6216171;23;20004;-72
2022/10/13 06:22:03;;;;;;;20.73;15.07;;;12.00;99.90;;;;;;6213075;23;20465;-72
2022/10/13 06:24:28;;;;;;;21.42;14.55;;;12.30;99.90;;;;;;6184397;23;20414;-72
2022/10/13 06:26:54;;;;;;;22.50;15.02;;;13.30;99.90;;;;;;6212491;23;20008;-72
2022/10/13 06:29:19;;;;;;;28.25;16.63;;;12.30;99.90;;;;;;6214793;23;20138;-72
2022/10/13 06:31:45;;;;;;;23.20;15.77;;;12.30;99.90;;;;;;6214664;23;20187;-71
2022/10/13 06:34:11;;;;;;;24.10;14.93;;;12.40;99.90;;;;;;6215290;23;19997;-71
2022/10/13 06:36:37;;;;;;;26.38;15.40;;;12.40;99.90;;;;;;6213057;23;20403;-72
2022/10/13 06:39:03;;;;;;;21.35;15.20;;;;;;;;;;6210759;23;19996;-72
2022/10/13 06:41:28;;;;;;;22.17;14.63;;;12.40;99.90;;;;;;6183243;23;20046;-71
2022/10/13 06:43:54;;;;;;;25.75;15.85;;;12.40;99.90;;;;;;6210675;23;20390;-72
2022/10/13 06:46:19;;;;;;;22.15;15.65;;;12.40;99.90;;;;;;6210492;23;20307;-72
2022/10/13 06:48:49;;;;;;;22.02;14.70;;;12.40;99.90;;;;;;6209287;23;20000;-71
2022/10/13 06:51:14;;;;;;;27.30;16.20;;;12.50;99.90;;;;;;6210339;23;20016;-71
2022/10/13 06:53:40;;;;;;;24.88;14.77;;;12.40;99.90;;;;;;6209815;23;20008;-72
2022/10/13 06:56:06;;;;;;;26.05;16.50;;;12.50;99.90;;;;;;6180354;23;20131;-72
2022/10/13 06:58:34;;;;;;;24.23;15.27;;;12.50;99.90;;;;;;6209479;23;20008;-72
2022/10/13 07:00:59;;;;;;;22.08;15.38;;;12.40;99.90;;;;;;6208496;23;20011;-72
2022/10/13 07:03:25;;;;;;;26.88;17.17;;;12.60;99.90;;;;;;6210549;23;20087;-72
2022/10/13 07:05:50;;;;;;;33.53;16.45;;;12.60;99.90;;;;;;6210360;23;20003;-72
2022/10/13 07:08:16;;;;;;;21.27;14.38;;;12.60;99.90;;;;;;6210157;23;20322;-72
2022/10/13 07:10:42;;;;;;;23.35;16.73;;;12.60;99.90;;;;;;6208102;23;20000;-72
2022/10/13 07:13:08;;;;;;;23.65;16.58;;;12.60;99.90;;;;;;6210879;23;20079;-72
2022/10/13 07:15:37;;;;;;;26.20;16.77;;;12.50;99.90;;;;;;6210750;23;20426;-72
2022/10/13 07:18:02;;;;;;;24.80;15.55;;;10.80;99.90;;;;;;6210511;23;20015;-72
2022/10/13 07:20:28;;;;;;;21.85;15.77;;;12.70;99.90;;;;;;6208471;23;20012;-72
2022/10/13 07:22:54;;;;;;;26.63;17.30;;;12.70;99.90;;;;;;6209101;23;20008;-72
2022/10/13 07:25:19;;;;;;;25.88;16.20;;;12.70;99.90;;;;;;6210471;23;20000;-72
2022/10/13 07:27:45;;;;;;;24.65;16.52;;;13.60;99.90;;;;;;6210312;23;20063;-72
2022/10/13 07:30:11;;;;;;;25.52;16.38;;;12.70;99.90;;;;;;6208771;23;20058;-72
2022/10/13 07:32:40;;;;;;;26.05;17.55;;;12.80;99.90;;;;;;6208443;23;20012;-72
2022/10/13 07:35:09;;;;;;;24.00;16.58;;;12.80;99.90;;;;;;6209970;23;20079;-72
2022/10/13 07:37:35;;;;;;;22.95;16.52;;;12.80;99.90;;;;;;6209945;23;20013;-72
2022/10/13 07:40:02;;;;;;;28.10;17.05;;;12.80;99.90;;;;;;6208522;23;20179;-71
2022/10/13 07:42:28;;;;;;;28.40;16.63;;;12.80;99.90;;;;;;6209394;23;20001;-72
2022/10/13 07:44:53;;;;;;;23.45;16.27;;;12.70;99.90;;;;;;6183057;23;20020;-71
2022/10/13 07:47:19;;;;;;;25.45;15.95;;;12.80;99.90;;;;;;6210285;23;20004;-71
2022/10/13 07:49:44;;;;;;;26.95;17.55;;;12.80;99.90;;;;;;6209292;23;20023;-72
2022/10/13 07:52:10;;;;;;;28.85;18.50;;;12.80;99.90;;;;;;6209332;23;20028;-72
2022/10/13 07:54:36;;;;;;;28.05;17.17;;;12.90;99.90;;;;;;6209592;23;20051;-71
2022/10/13 07:57:02;;;;;;;34.75;19.88;;;13.00;99.90;;;;;;6210148;23;20024;-71
2022/10/13 07:59:27;;;;;;;25.23;17.30;;;13.00;99.90;;;;;;6210308;23;20422;-71
2022/10/13 08:01:53;;;;;;;28.83;18.20;;;13.00;99.90;;;;;;6208317;23;20058;-71
2022/10/13 08:04:19;;;;;;;33.10;19.00;;;13.00;99.90;;;;;;6209386;23;20007;-72
2022/10/13 08:06:44;;;;;;;28.65;19.13;;;13.10;99.90;;;;;;6210221;23;20330;-71
2022/10/13 08:09:10;;;;;;;27.27;19.15;;;13.10;99.90;;;;;;6210250;23;20426;-70
2022/10/13 08:11:36;;;;;;;24.73;16.70;;;13.10;99.90;;;;;;6209398;23;20084;-70
2022/10/13 08:14:02;;;;;;;25.17;17.13;;;14.00;99.90;;;;;;6210623;23;20310;-71
2022/10/13 08:16:28;;;;;;;23.20;17.35;;;13.30;99.90;;;;;;6209485;23;20001;-71
2022/10/13 08:18:55;;;;;;;25.55;16.67;;;13.40;99.90;;;;;;6210458;23;20325;-70
2022/10/13 08:21:21;;;;;;;27.27;18.73;;;13.50;99.90;;;;;;6208379;23;20028;-71
2022/10/13 08:23:47;;;;;;;31.17;19.42;;;13.30;99.90;;;;;;6210267;23;20004;-70
2022/10/13 08:26:16;;;;;;;30.45;17.65;;;13.90;99.90;;;;;;6208553;23;20000;-71
2022/10/13 08:28:41;;;;;;;26.55;18.10;;;13.50;99.90;;;;;;6210180;23;20001;-71
2022/10/13 08:31:07;;;;;;;26.20;19.35;;;13.40;99.90;;;;;;6208433;23;20080;-71
2022/10/13 08:33:32;;;;;;;26.00;18.83;;;13.70;99.90;;;;;;6209847;23;20009;-71
2022/10/13 08:35:58;;;;;;;27.35;17.48;;;13.70;99.90;;;;;;6208596;23;20004;-71
2022/10/13 08:38:24;;;;;;;30.25;18.50;;;13.80;99.90;;;;;;6211025;23;20005;-70
2022/10/13 08:40:50;;;;;;;27.63;18.73;;;14.60;99.90;;;;;;6210746;23;20051;-71
2022/10/13 08:43:19;;;;;;;26.02;18.95;;;14.00;99.90;;;;;;6211291;23;20137;-71
2022/10/13 08:45:47;;;;;;;25.13;18.17;;;14.00;99.90;;;;;;6184881;23;20324;-71
2022/10/13 08:48:40;;;;;;;28.73;18.27;;;13.60;99.90;;;;;;6210512;23;20016;-71
2022/10/13 08:51:06;;;;;;;30.42;18.20;;;13.90;99.90;;;;;;6205079;23;20087;-72
2022/10/13 08:53:36;;;;;;;26.33;18.60;;;14.00;99.90;;;;;;6211660;23;20005;-71
2022/10/13 08:56:28;;;;;;;25.58;18.05;;;14.00;99.90;;;;;;6211830;23;19997;-71
2022/10/13 08:58:55;;;;;;;26.88;19.02;;;13.90;99.90;;;;;;6210599;23;20087;-71
2022/10/13 09:01:28;;;;;;;21.80;17.67;;;14.00;99.90;;;;;;6211000;23;20422;-72
2022/10/13 09:04:14;;;;;;;24.10;18.30;;;14.00;99.90;;;;;;6211283;23;20003;-71
2022/10/13 09:06:44;;;;;;;29.85;17.63;;;14.10;99.90;;;;;;6212111;23;20001;-72
2022/10/13 09:09:12;;;;;;;31.88;18.58;;;14.20;99.90;;;;;;6209594;23;20005;-71
2022/10/13 09:11:40;;;;;;;29.25;20.35;;;14.30;99.90;;;;;;6209756;23;20007;-71
2022/10/13 09:14:08;;;;;;;28.30;17.20;;;14.80;99.90;;;;;;6211078;23;20062;-71
2022/10/13 09:16:40;;;;;;;28.00;19.05;;;14.50;99.90;;;;;;6212028;23;20000;-71
2022/10/13 09:19:24;;;;;;;27.02;19.05;;;14.70;99.90;;;;;;6210080;23;20009;-71
2022/10/13 09:21:55;;;;;;;32.30;20.08;;;16.30;99.90;;;;;;6210431;23;20005;-71
2022/10/13 09:24:22;;;;;;;33.47;18.40;;;14.80;99.90;;;;;;6211675;23;20005;-71
2022/10/13 09:26:51;;;;;;;26.05;16.40;;;16.00;99.90;;;;;;6211613;23;20054;-71
2022/10/13 09:29:25;;;;;;;25.63;17.75;;;14.90;99.90;;;;;;6211785;23;20000;-71
2022/10/13 09:31:53;;;;;;;21.45;16.98;;;15.00;99.90;;;;;;6211378;23;20001;-71
2022/10/13 09:34:18;;;;;;;24.02;16.42;;;14.90;99.90;;;;;;6214662;23;20004;-71
2022/10/13 09:37:05;;;;;;;26.05;16.85;;;15.20;99.90;;;;;;6219439;23;20027;-70
2022/10/13 09:39:32;;;;;;;23.95;16.55;;;15.60;99.90;;;;;;6217215;23;20008;-71
2022/10/13 09:42:16;;;;;;;23.77;15.27;;;14.00;99.90;;;;;;6210503;23;20326;-71
2022/10/13 09:44:42;;;;;;;21.75;16.50;;;15.40;99.90;;;;;;6183774;23;20493;-71
2022/10/13 09:47:20;;;;;;;26.15;16.88;;;16.80;99.90;;;;;;6210827;23;20012;-71
2022/10/13 09:49:56;;;;;;;23.33;16.00;;;15.50;99.90;;;;;;6211343;23;20027;-71
2022/10/13 09:52:24;;;;;;;28.35;18.10;;;16.40;99.90;;;;;;6213514;23;20147;-70
2022/10/13 09:54:59;;;;;;;23.35;15.60;;;15.60;99.90;;;;;;6214878;23;19996;-71
2022/10/13 09:57:47;;;;;;;25.83;17.83;;;15.60;99.90;;;;;;6212498;23;20005;-71
2022/10/13 10:00:23;;;;;;;21.83;15.23;;;15.70;99.90;;;;;;6209577;23;20001;-71
2022/10/13 10:02:56;;;;;;;21.33;15.27;;;15.70;99.90;;;;;;6208826;23;19996;-71
2022/10/13 10:05:27;;;;;;;21.15;15.77;;;15.80;99.90;;;;;;6211103;23;20016;-71
2022/10/13 10:07:59;;;;;;;20.10;14.20;;;15.90;99.90;;;;;;6210718;23;20003;-71
2022/10/13 10:10:33;;;;;;;25.02;15.55;;;16.30;99.90;;;;;;6209031;23;20330;-71
2022/10/13 10:12:59;;;;;;;21.45;16.08;;;16.00;99.90;;;;;;6211199;23;20058;-71
2022/10/13 10:15:36;;;;;;;29.38;15.25;;;16.10;99.90;;;;;;6209511;23;20000;-71
2022/10/13 10:18:30;;;;;;;20.45;15.63;;;16.10;99.90;;;;;;6210853;23;20008;-71
2022/10/13 10:21:15;;;;;;;21.40;14.35;;;16.20;99.90;;;;;;6209444;23;20087;-72
2022/10/13 10:23:56;;;;;;;25.10;16.33;;;16.10;99.90;;;;;;6210587;23;20003;-71
2022/10/13 10:26:28;;;;;;;18.35;14.15;;;16.10;99.90;;;;;;6209224;23;20012;-71
2022/10/13 10:28:53;;;;;;;22.02;15.32;;;17.40;99.90;;;;;;6211073;23;20126;-71
2022/10/13 10:31:41;;;;;;;22.65;15.63;;;16.00;99.90;;;;;;6209607;23;20027;-71
2022/10/13 10:34:36;;;;;;;22.50;14.65;;;15.90;99.90;;;;;;6211293;23;20033;-71
2022/10/13 10:37:13;;;;;;;20.13;15.27;;;15.90;99.90;;;;;;6210209;23;20007;-72
2022/10/13 10:39:58;;;;;;;23.27;15.18;;;15.80;99.90;;;;;;6210240;23;20142;-71
2022/10/13 10:42:40;;;;;;;26.77;15.13;;;13.50;99.90;;;;;;6211383;23;20326;-71
2022/10/13 10:45:32;;;;;;;20.38;14.25;;;15.70;99.90;;;;;;6210336;23;20024;-71
2022/10/13 10:48:26;;;;;;;21.98;15.88;;;15.70;99.90;;;;;;6209872;23;20004;-72
2022/10/13 10:50:52;;;;;;;19.90;14.10;;;15.70;99.90;;;;;;6189786;23;19997;-71
2022/10/13 10:53:30;;;;;;;26.35;15.30;;;15.80;99.90;;;;;;6211163;23;19997;-71
2022/10/13 10:56:08;;;;;;;25.55;15.48;;;15.90;99.90;;;;;;6210753;23;20004;-71
2022/10/13 10:58:39;;;;;;;20.30;14.48;;;15.80;99.90;;;;;;6182455;23;20096;-71
2022/10/13 11:01:09;;;;;;;22.00;13.18;;;14.90;99.90;;;;;;6209209;23;20004;-73
2022/10/13 11:03:48;;;;;;;22.30;14.13;;;15.50;99.90;;;;;;6209432;23;20084;-72
2022/10/13 11:06:16;;;;;;;22.98;14.77;;;15.60;99.90;;;;;;6210024;23;19997;-73
2022/10/13 11:08:47;;;;;;;23.83;15.38;;;15.40;99.90;;;;;;6208884;23;20024;-71
2022/10/13 11:11:19;;;;;;;23.00;15.40;;;15.30;99.90;;;;;;6209014;23;20104;-72
2022/10/13 11:14:03;;;;;;;23.98;16.52;;;15.20;99.90;;;;;;6210430;23;20001;-72
2022/10/13 11:16:33;;;;;;;23.88;16.17;;;15.60;99.90;;;;;;6210626;23;20130;-72
2022/10/13 11:19:05;;;;;;;21.60;17.13;;;15.00;99.90;;;;;;6210246;23;20005;-71
2022/10/13 11:22:11;;;;;;;26.17;17.88;;;14.80;99.90;;;;;;6208352;23;20417;-71
2022/10/13 11:24:39;;;;;;;25.88;17.23;;;14.60;99.90;;;;;;6209779;23;20434;-72
2022/10/13 11:27:10;;;;;;;23.73;15.52;;;14.60;99.90;;;;;;6211110;23;20279;-72
2022/10/13 11:29:47;;;;;;;30.58;17.35;;;14.60;99.90;;;;;;6208323;23;20096;-72
2022/10/13 11:35:01;;;;;;;34.53;19.50;;;14.60;99.90;;;;;;6209793;23;20020;-71
2022/10/13 11:37:42;;;;;;;28.25;19.10;;;14.50;99.90;;;;;;6209704;23;20595;-71
2022/10/13 11:40:29;;;;;;;25.10;19.63;;;14.50;99.90;;;;;;6208735;23;20001;-72
2022/10/13 11:43:11;;;;;;;27.15;18.20;;;14.40;99.90;;;;;;6208416;23;20007;-69
2022/10/13 11:46:01;;;;;;;25.42;18.95;;;14.40;99.90;;;;;;6209387;23;20040;-71
2022/10/13 11:48:48;;;;;;;23.42;18.63;;;14.50;99.90;;;;;;6209428;23;20016;-71
2022/10/13 11:51:22;;;;;;;31.33;19.58;;;14.50;99.90;;;;;;6209102;23;20400;-71
2022/10/13 11:54:04;;;;;;;25.88;20.75;;;14.50;99.90;;;;;;6208681;23;20000;-71
2022/10/13 11:56:34;;;;;;;28.92;19.02;;;14.60;99.90;;;;;;6182901;23;20028;-71
2022/10/13 11:59:00;;;;;;;29.00;19.60;;;14.50;99.90;;;;;;6209202;23;20067;-71
2022/10/13 12:01:26;;;;;;;33.92;20.98;;;14.50;99.90;;;;;;6208913;23;20044;-71
2022/10/13 12:03:51;;;;;;;23.35;18.80;;;14.60;99.90;;;;;;6208608;23;20000;-71
2022/10/13 12:06:35;;;;;;;24.95;19.67;;;14.40;99.90;;;;;;6209702;23;19997;-71
2022/10/13 12:09:15;;;;;;;28.52;20.30;;;14.40;99.90;;;;;;6210283;23;20001;-71
2022/10/13 12:11:41;;;;;;;25.83;19.90;;;14.30;99.90;;;;;;6210700;23;20083;-71
2022/10/13 12:14:19;;;;;;;32.60;20.58;;;14.30;99.90;;;;;;6211366;23;20035;-71
2022/10/13 12:16:55;;;;;;;31.45;20.23;;;15.20;99.90;;;;;;6211000;23;20418;-70
2022/10/13 12:19:24;;;;;;;29.08;20.27;;;14.40;99.90;;;;;;6211246;23;19993;-71
2022/10/13 12:21:51;;;;;;;25.75;20.70;;;14.40;99.90;;;;;;6211180;23;20059;-71
2022/10/13 12:24:17;;;;;;;32.20;20.83;;;14.40;99.90;;;;;;6211824;23;20061;-71
2022/10/13 12:26:43;;;;;;;26.80;18.30;;;14.30;99.90;;;;;;6209682;23;20079;-71
2022/10/13 12:29:12;;;;;;;30.02;19.88;;;14.30;99.90;;;;;;6212237;23;20050;-70
2022/10/13 12:31:41;;;;;;;26.05;17.10;;;14.20;99.90;;;;;;6209585;23;20095;-71
2022/10/13 12:34:21;;;;;;;25.50;20.27;;;14.90;99.90;;;;;;6212099;23;20055;-70
2022/10/13 12:36:55;;;;;;;27.85;18.23;;;14.40;99.90;;;;;;6210367;23;20076;-70
2022/10/13 12:39:21;;;;;;;22.30;16.92;;;14.30;99.90;;;;;;6211670;23;20039;-71
2022/10/13 12:41:48;;;;;;;22.13;16.92;;;14.40;99.90;;;;;;6210092;23;20009;-71
2022/10/13 12:44:21;;;;;;;26.67;18.38;;;14.40;99.90;;;;;;6212365;23;20043;-71